createdAt,value
2022-09-30T00:00:05.860Z,69.30
2022-09-30T00:02:36.924Z,69.20
2022-09-30T00:05:07.964Z,69.30
2022-09-30T00:07:37.647Z,69.40
2022-09-30T00:10:07.230Z,69.60
2022-09-30T00:12:35.400Z,69.50
2022-09-30T00:15:03.801Z,69.60
2022-09-30T00:17:32.044Z,69.80
2022-09-30T00:20:00.270Z,69.90
2022-09-30T00:22:28.455Z,69.90
2022-09-30T00:25:00.242Z,69.80
2022-09-30T00:27:28.446Z,69.80
2022-09-30T00:29:56.749Z,69.90
2022-09-30T00:32:24.905Z,69.80
2022-09-30T00:34:53.162Z,69.90
2022-09-30T00:37:21.328Z,70.00
2022-09-30T00:39:49.523Z,70.00
2022-09-30T00:42:19.547Z,70.20
2022-09-30T00:44:55.994Z,70.10
2022-09-30T00:47:36.709Z,70.20
2022-09-30T00:50:13.437Z,70.40
2022-09-30T00:52:42.856Z,70.10
2022-09-30T00:55:26.955Z,70.00
2022-09-30T00:57:57.661Z,70.20
2022-09-30T01:00:28.090Z,70.20
2022-09-30T01:02:57.384Z,70.30
2022-09-30T01:05:27.578Z,70.10
2022-09-30T01:07:59.157Z,70.30
2022-09-30T01:10:27.548Z,70.30
2022-09-30T01:12:58.351Z,70.20
2022-09-30T01:15:42.528Z,71.00
2022-09-30T01:18:19.911Z,70.50
2022-09-30T01:21:18.232Z,70.30
2022-09-30T01:24:13.741Z,70.70
2022-09-30T01:27:06.238Z,70.70
2022-09-30T01:30:13.123Z,70.80
2022-09-30T01:33:05.611Z,70.80
2022-09-30T01:35:47.453Z,70.60
2022-09-30T01:38:26.807Z,70.60
2022-09-30T01:41:05.451Z,70.60
2022-09-30T01:43:44.817Z,70.60
2022-09-30T01:46:24.248Z,70.70
2022-09-30T01:49:00.877Z,71.00
2022-09-30T01:51:39.238Z,70.90
2022-09-30T01:54:16.443Z,70.90
2022-09-30T01:56:48.795Z,70.80
2022-09-30T01:59:21.486Z,70.90
2022-09-30T02:01:54.508Z,70.90
2022-09-30T02:04:29.843Z,70.70
2022-09-30T02:07:02.179Z,70.90
2022-09-30T02:09:37.897Z,70.90
2022-09-30T02:12:10.087Z,70.70
2022-09-30T02:14:43.061Z,71.00
2022-09-30T02:17:16.462Z,70.80
2022-09-30T02:19:49.071Z,70.80
2022-09-30T02:22:21.466Z,70.80
2022-09-30T02:24:54.510Z,70.70
2022-09-30T02:27:28.116Z,71.40
2022-09-30T02:29:59.609Z,70.70
2022-09-30T02:32:32.292Z,70.60
2022-09-30T02:35:06.156Z,70.60
2022-09-30T02:37:37.803Z,70.60
2022-09-30T02:40:12.007Z,70.50
2022-09-30T02:42:42.126Z,70.30
2022-09-30T02:45:16.493Z,70.20
2022-09-30T02:47:55.742Z,70.10
2022-09-30T02:50:33.068Z,70.20
2022-09-30T02:53:12.725Z,70.10
2022-09-30T02:55:51.246Z,70.00
2022-09-30T02:58:26.067Z,69.90
2022-09-30T03:00:55.538Z,70.00
2022-09-30T03:03:28.764Z,70.00
2022-09-30T03:05:58.761Z,70.10
2022-09-30T03:08:27.705Z,70.00
2022-09-30T03:10:55.886Z,69.90
2022-09-30T03:13:56.895Z,69.70
2022-09-30T03:16:41.539Z,69.70
2022-09-30T03:19:26.921Z,70.10
2022-09-30T03:22:15.338Z,69.70
2022-09-30T03:25:05.542Z,69.60
2022-09-30T03:27:43.044Z,69.60
2022-09-30T03:30:16.213Z,69.60
2022-09-30T03:33:01.138Z,69.40
2022-09-30T03:35:34.000Z,69.30
2022-09-30T03:38:13.882Z,68.90
2022-09-30T03:40:44.523Z,68.90
2022-09-30T03:43:19.823Z,69.30
2022-09-30T03:45:53.889Z,69.10
2022-09-30T03:48:23.943Z,68.90
2022-09-30T03:50:52.842Z,69.30
2022-09-30T03:53:22.356Z,69.30
2022-09-30T03:55:52.314Z,69.00
2022-09-30T03:58:22.173Z,68.90
2022-09-30T04:00:51.213Z,69.40
2022-09-30T04:03:19.767Z,69.30
2022-09-30T04:05:47.839Z,69.30
2022-09-30T04:08:16.230Z,69.30
2022-09-30T04:10:46.259Z,69.30
2022-09-30T04:13:14.457Z,69.40
2022-09-30T04:15:43.507Z,70.10
2022-09-30T04:18:11.491Z,69.60
2022-09-30T04:20:40.551Z,70.00
2022-09-30T04:23:08.851Z,69.70
2022-09-30T04:25:38.339Z,70.00
2022-09-30T04:28:07.939Z,70.00
2022-09-30T04:30:36.119Z,70.50
2022-09-30T04:33:04.335Z,70.30
2022-09-30T04:35:32.799Z,70.10
2022-09-30T04:38:01.217Z,70.10
2022-09-30T04:40:29.509Z,70.10
2022-09-30T04:42:58.276Z,70.00
2022-09-30T04:45:28.078Z,70.10
2022-09-30T04:47:56.233Z,70.30
2022-09-30T04:50:24.513Z,70.30
2022-09-30T04:52:56.236Z,70.40
2022-09-30T04:55:24.979Z,70.60
2022-09-30T04:57:53.193Z,70.80
2022-09-30T05:00:21.399Z,70.90
2022-09-30T05:02:51.082Z,70.90
2022-09-30T05:05:21.610Z,70.80
2022-09-30T05:07:49.867Z,70.70
2022-09-30T05:10:18.273Z,70.50
2022-09-30T05:12:48.963Z,70.60
2022-09-30T05:15:17.313Z,70.40
2022-09-30T05:17:45.492Z,70.30
2022-09-30T05:20:18.937Z,70.30
2022-09-30T05:22:49.387Z,70.50
2022-09-30T05:25:17.721Z,70.60
2022-09-30T05:27:49.394Z,70.70
2022-09-30T05:30:17.789Z,70.70
2022-09-30T05:32:46.432Z,70.70
2022-09-30T05:35:18.335Z,70.80
2022-09-30T05:37:46.456Z,70.90
2022-09-30T05:40:17.113Z,71.10
2022-09-30T05:42:47.519Z,70.50
2022-09-30T05:45:15.656Z,70.90
2022-09-30T05:47:43.688Z,70.70
2022-09-30T05:50:11.711Z,70.80
2022-09-30T05:52:41.297Z,70.80
2022-09-30T05:55:10.225Z,70.80
2022-09-30T05:57:38.288Z,71.00
2022-09-30T06:00:06.719Z,69.90
2022-09-30T06:02:39.902Z,68.90
2022-09-30T06:05:09.371Z,67.80
2022-09-30T06:07:38.534Z,70.50
2022-09-30T06:10:12.193Z,71.60
2022-09-30T06:12:42.658Z,71.90
2022-09-30T06:15:11.445Z,72.60
2022-09-30T06:17:42.510Z,73.00
2022-09-30T06:20:13.122Z,73.60
2022-09-30T06:22:44.014Z,70.50
2022-09-30T06:25:14.453Z,68.80
2022-09-30T06:27:46.981Z,68.50
2022-09-30T06:30:15.730Z,68.10
2022-09-30T06:32:46.273Z,68.40
2022-09-30T06:35:14.468Z,68.60
2022-09-30T06:37:42.789Z,68.90
2022-09-30T06:40:11.536Z,69.10
2022-09-30T06:42:42.012Z,69.30
2022-09-30T06:45:22.911Z,69.30
2022-09-30T06:48:00.538Z,69.50
2022-09-30T06:50:29.970Z,69.80
2022-09-30T06:52:59.304Z,69.30
2022-09-30T06:55:28.423Z,69.60
2022-09-30T06:57:58.571Z,69.90
2022-09-30T07:00:29.045Z,70.10
2022-09-30T07:02:59.387Z,70.40
2022-09-30T07:05:27.664Z,70.50
2022-09-30T07:07:56.257Z,70.60
2022-09-30T07:10:24.532Z,70.60
2022-09-30T07:12:55.349Z,70.30
2022-09-30T07:15:24.966Z,70.20
2022-09-30T07:17:53.666Z,70.20
2022-09-30T07:20:24.001Z,70.10
2022-09-30T07:22:52.576Z,70.20
2022-09-30T07:25:20.812Z,70.10
2022-09-30T07:27:49.033Z,70.10
2022-09-30T07:30:26.717Z,70.20
2022-09-30T07:32:56.950Z,70.20
2022-09-30T07:35:25.159Z,70.00
2022-09-30T07:37:53.299Z,70.00
2022-09-30T07:40:21.522Z,70.10
2022-09-30T07:42:49.823Z,70.00
2022-09-30T07:45:19.428Z,70.20
2022-09-30T07:47:52.705Z,70.00
2022-09-30T07:50:23.285Z,70.00
2022-09-30T07:52:51.538Z,69.40
2022-09-30T07:55:19.861Z,69.40
2022-09-30T07:57:48.070Z,69.50
2022-09-30T08:00:41.209Z,69.30
2022-09-30T08:03:04.393Z,68.90
2022-09-30T08:05:39.584Z,68.90
2022-09-30T08:08:07.657Z,68.60
2022-09-30T08:10:35.971Z,67.70
2022-09-30T08:13:06.257Z,63.80
2022-09-30T08:15:34.932Z,63.30
2022-09-30T08:18:03.539Z,63.20
2022-09-30T08:20:33.153Z,64.30
2022-09-30T08:23:01.395Z,61.30
2022-09-30T08:25:29.683Z,60.00
2022-09-30T08:27:57.916Z,59.50
2022-09-30T08:30:26.129Z,59.30
2022-09-30T08:32:54.354Z,59.20
2022-09-30T08:35:22.557Z,59.40
2022-09-30T08:37:54.749Z,58.40
2022-09-30T08:40:25.890Z,58.60
2022-09-30T08:43:23.775Z,57.40
2022-09-30T08:46:02.127Z,58.40
2022-09-30T08:48:49.230Z,57.60
2022-09-30T08:51:31.249Z,58.00
2022-09-30T08:54:03.745Z,58.70
2022-09-30T08:56:35.758Z,59.60
2022-09-30T08:59:09.860Z,60.20
2022-09-30T09:01:42.194Z,57.10
2022-09-30T09:04:10.872Z,57.30
2022-09-30T09:06:50.459Z,56.10
2022-09-30T09:09:37.757Z,54.60
2022-09-30T09:12:21.098Z,53.60
2022-09-30T09:15:00.533Z,52.40
2022-09-30T09:17:58.579Z,55.00
2022-09-30T09:20:37.756Z,55.90
2022-09-30T09:23:11.502Z,56.60
2022-09-30T09:25:41.287Z,55.60
2022-09-30T09:28:21.250Z,53.30
2022-09-30T09:30:50.923Z,52.00
2022-09-30T09:33:21.368Z,51.80
2022-09-30T09:35:51.171Z,51.80
2022-09-30T09:38:25.904Z,51.60
2022-09-30T09:41:09.556Z,51.20
2022-09-30T09:43:51.533Z,51.00
2022-09-30T09:46:25.126Z,51.00
2022-09-30T09:49:14.166Z,51.50
2022-09-30T09:51:47.262Z,51.00
2022-09-30T09:54:19.781Z,50.00
2022-09-30T09:56:53.052Z,50.30
2022-09-30T09:59:23.508Z,50.00
2022-09-30T10:01:52.891Z,48.70
2022-09-30T10:04:26.692Z,49.60
2022-09-30T10:07:00.622Z,50.30
2022-09-30T10:09:30.308Z,49.90
2022-09-30T10:12:17.010Z,50.50
2022-09-30T10:14:55.228Z,49.00
2022-09-30T10:17:27.225Z,49.70
2022-09-30T10:19:56.183Z,49.50
2022-09-30T10:22:28.042Z,49.50
2022-09-30T10:25:09.926Z,49.20
2022-09-30T10:27:48.339Z,49.90
2022-09-30T10:30:30.797Z,50.20
2022-09-30T10:32:59.119Z,49.80
2022-09-30T10:35:27.326Z,49.50
2022-09-30T10:37:56.115Z,48.30
2022-09-30T10:40:27.258Z,48.60
2022-09-30T10:42:55.780Z,48.50
2022-09-30T10:45:30.409Z,47.50
2022-09-30T10:47:59.297Z,48.10
2022-09-30T10:50:28.054Z,47.50
2022-09-30T10:52:58.154Z,47.20
2022-09-30T10:55:30.399Z,47.60
2022-09-30T10:57:59.855Z,47.30
2022-09-30T11:00:34.538Z,47.60
2022-09-30T11:03:04.659Z,47.90
2022-09-30T11:05:33.512Z,47.40
2022-09-30T11:08:04.777Z,46.90
2022-09-30T11:10:37.596Z,45.90
2022-09-30T11:13:08.862Z,45.40
2022-09-30T11:15:41.757Z,45.80
2022-09-30T11:18:17.084Z,45.50
2022-09-30T11:20:48.450Z,43.60
2022-09-30T11:23:20.092Z,44.50
2022-09-30T11:25:51.014Z,45.60
2022-09-30T11:28:27.389Z,45.60
2022-09-30T11:31:02.808Z,46.30
2022-09-30T11:33:37.246Z,45.70
2022-09-30T11:36:08.189Z,46.30
2022-09-30T11:38:44.456Z,45.50
2022-09-30T11:41:17.449Z,45.20
2022-09-30T11:43:50.603Z,45.20
2022-09-30T11:46:24.203Z,45.50
2022-09-30T11:49:00.294Z,45.00
2022-09-30T11:51:32.158Z,44.70
2022-09-30T11:54:06.732Z,44.80
2022-09-30T11:56:48.238Z,45.40
2022-09-30T11:59:19.851Z,45.50
2022-09-30T12:01:51.314Z,45.30
2022-09-30T12:04:22.358Z,44.80
2022-09-30T12:06:51.779Z,45.10
2022-09-30T12:09:23.478Z,44.70
2022-09-30T12:11:53.729Z,44.80
2022-09-30T12:14:27.471Z,45.60
2022-09-30T12:16:59.633Z,45.80
2022-09-30T12:19:34.052Z,48.20
2022-09-30T12:22:07.636Z,48.60
2022-09-30T12:24:38.818Z,49.10
2022-09-30T12:27:13.990Z,49.30
2022-09-30T12:30:02.145Z,46.70
2022-09-30T12:32:56.373Z,45.40
2022-09-30T12:35:51.041Z,46.20
2022-09-30T12:38:37.641Z,46.90
2022-09-30T12:41:21.290Z,46.80
2022-09-30T12:44:01.607Z,45.00
2022-09-30T12:46:47.478Z,45.40
2022-09-30T12:49:42.735Z,45.60
2022-09-30T12:52:14.587Z,45.50
2022-09-30T12:54:44.156Z,45.20
2022-09-30T12:57:18.822Z,45.10
2022-09-30T12:59:52.766Z,44.70
2022-09-30T13:02:32.747Z,44.10
2022-09-30T13:05:18.908Z,43.20
2022-09-30T13:08:02.398Z,43.80
2022-09-30T13:10:32.641Z,43.80
2022-09-30T13:13:23.806Z,43.40
2022-09-30T13:15:52.333Z,44.30
2022-09-30T13:18:40.904Z,44.40
2022-09-30T13:21:20.235Z,44.70
2022-09-30T13:23:49.022Z,44.50
2022-09-30T13:26:37.037Z,44.00
2022-09-30T13:29:23.765Z,44.10
2022-09-30T13:32:03.661Z,44.70
2022-09-30T13:34:32.756Z,45.30
2022-09-30T13:37:01.573Z,45.50
2022-09-30T13:39:33.123Z,45.10
2022-09-30T13:42:10.243Z,44.90
2022-09-30T13:44:48.461Z,45.00
2022-09-30T13:47:20.053Z,44.20
2022-09-30T13:49:57.653Z,44.70
2022-09-30T13:52:29.145Z,45.10
2022-09-30T13:54:59.760Z,45.10
2022-09-30T13:57:35.119Z,44.70
2022-09-30T14:00:07.402Z,45.20
2022-09-30T14:03:17.941Z,45.40
2022-09-30T14:05:55.661Z,45.80
2022-09-30T14:08:41.125Z,45.90
2022-09-30T14:11:16.153Z,45.90
2022-09-30T14:13:52.069Z,45.60
2022-09-30T14:16:34.826Z,45.70
2022-09-30T14:19:08.611Z,46.20
2022-09-30T14:21:40.412Z,46.70
2022-09-30T14:24:11.832Z,47.40
2022-09-30T14:26:54.892Z,47.00
2022-09-30T14:29:28.591Z,47.00
2022-09-30T14:31:57.035Z,47.10
2022-09-30T14:34:25.703Z,47.40
2022-09-30T14:36:54.755Z,47.40
2022-09-30T14:39:27.016Z,47.30
2022-09-30T14:41:57.842Z,46.50
2022-09-30T14:44:29.420Z,46.80
2022-09-30T14:47:01.387Z,46.80
2022-09-30T14:49:34.423Z,46.80
2022-09-30T14:52:03.954Z,46.70
2022-09-30T14:54:33.052Z,46.90
2022-09-30T14:57:02.378Z,47.20
2022-09-30T14:59:38.319Z,47.30
2022-09-30T15:02:13.564Z,47.20
2022-09-30T15:04:50.162Z,47.40
2022-09-30T15:07:18.292Z,47.80
2022-09-30T15:09:47.345Z,48.10
2022-09-30T15:12:16.904Z,48.60
2022-09-30T15:14:50.513Z,48.90
2022-09-30T15:17:19.700Z,48.90
2022-09-30T15:19:48.308Z,49.10
2022-09-30T15:22:19.427Z,49.20
2022-09-30T15:24:48.259Z,49.30
2022-09-30T15:27:22.032Z,49.20
2022-09-30T15:29:58.634Z,49.40
2022-09-30T15:32:28.126Z,49.50
2022-09-30T15:34:58.989Z,49.30
2022-09-30T15:37:33.406Z,49.30
2022-09-30T15:40:21.756Z,49.30
2022-09-30T15:42:55.578Z,49.30
2022-09-30T15:45:34.954Z,49.60
2022-09-30T15:48:05.703Z,49.80
2022-09-30T15:50:37.443Z,49.90
2022-09-30T15:53:06.196Z,49.80
2022-09-30T15:55:41.744Z,49.80
2022-09-30T15:58:29.640Z,49.90
2022-09-30T16:01:10.405Z,50.20
2022-09-30T16:03:38.545Z,50.30
2022-09-30T16:06:07.767Z,50.30
2022-09-30T16:08:40.858Z,50.00
2022-09-30T16:11:08.898Z,50.00
2022-09-30T16:13:38.612Z,50.00
2022-09-30T16:16:16.870Z,50.40
2022-09-30T16:18:44.992Z,50.40
2022-09-30T16:21:27.301Z,50.50
2022-09-30T16:23:55.545Z,50.50
2022-09-30T16:26:28.756Z,50.80
2022-09-30T16:28:57.108Z,50.80
2022-09-30T16:31:26.747Z,50.80
2022-09-30T16:33:54.845Z,50.80
2022-09-30T16:36:22.955Z,50.80
2022-09-30T16:38:50.962Z,51.00
2022-09-30T16:41:18.984Z,51.00
2022-09-30T16:43:47.077Z,51.00
2022-09-30T16:46:15.101Z,51.00
2022-09-30T16:48:46.885Z,50.60
2022-09-30T16:51:15.752Z,51.00
2022-09-30T16:53:44.153Z,50.70
2022-09-30T16:56:15.280Z,50.90
2022-09-30T16:58:44.093Z,51.20
2022-09-30T17:01:17.724Z,51.20
2022-09-30T17:03:47.611Z,51.30
2022-09-30T17:06:18.725Z,51.40
2022-09-30T17:08:46.932Z,51.50
2022-09-30T17:11:15.217Z,51.10
2022-09-30T17:13:43.622Z,51.40
2022-09-30T17:16:11.696Z,51.40
2022-09-30T17:18:40.334Z,51.60
2022-09-30T17:21:09.728Z,51.80
2022-09-30T17:23:37.708Z,51.70
2022-09-30T17:26:08.237Z,51.80
2022-09-30T17:28:36.518Z,52.00
2022-09-30T17:31:04.721Z,52.10
2022-09-30T17:33:33.346Z,52.20
2022-09-30T17:36:02.584Z,52.20
2022-09-30T17:38:32.022Z,52.50
2022-09-30T17:41:20.449Z,52.50
2022-09-30T17:43:48.574Z,52.60
2022-09-30T17:46:19.212Z,52.50
2022-09-30T17:48:47.668Z,52.60
2022-09-30T17:51:16.350Z,52.70
2022-09-30T17:53:46.385Z,52.80
2022-09-30T17:56:19.439Z,52.90
2022-09-30T17:58:49.128Z,53.00
2022-09-30T18:01:18.177Z,53.00
2022-09-30T18:03:46.230Z,53.10
2022-09-30T18:06:15.415Z,53.00
2022-09-30T18:08:48.766Z,53.20
2022-09-30T18:11:21.581Z,53.30
2022-09-30T18:13:55.157Z,53.50
2022-09-30T18:16:24.511Z,53.70
2022-09-30T18:18:53.199Z,53.80
2022-09-30T18:21:23.810Z,54.20
2022-09-30T18:23:54.025Z,54.40
2022-09-30T18:26:24.051Z,54.70
2022-09-30T18:28:53.156Z,54.80
2022-09-30T18:31:28.516Z,55.20
2022-09-30T18:33:57.091Z,55.40
2022-09-30T18:36:29.566Z,55.80
2022-09-30T18:38:59.531Z,55.90
2022-09-30T18:41:28.261Z,56.10
2022-09-30T18:43:59.519Z,56.20
2022-09-30T18:46:30.728Z,55.90
2022-09-30T18:48:59.342Z,55.80
2022-09-30T18:51:27.651Z,55.90
2022-09-30T18:54:01.264Z,55.70
2022-09-30T18:56:32.107Z,55.40
2022-09-30T18:59:00.915Z,55.40
2022-09-30T19:01:29.425Z,55.40
2022-09-30T19:03:57.763Z,55.50
2022-09-30T19:06:28.236Z,55.80
2022-09-30T19:08:56.814Z,55.70
2022-09-30T19:11:26.693Z,55.80
2022-09-30T19:13:57.159Z,55.60
2022-09-30T19:16:26.106Z,55.70
2022-09-30T19:18:55.338Z,55.80
2022-09-30T19:21:23.698Z,55.90
2022-09-30T19:23:51.840Z,56.10
2022-09-30T19:26:22.114Z,56.20
2022-09-30T19:28:55.403Z,56.10
2022-09-30T19:31:24.155Z,56.20
2022-09-30T19:33:57.115Z,56.20
2022-09-30T19:36:28.086Z,56.00
2022-09-30T19:39:10.097Z,55.90
2022-09-30T19:41:42.606Z,55.90
2022-09-30T19:44:19.314Z,55.70
2022-09-30T19:46:50.243Z,55.80
2022-09-30T19:49:19.011Z,55.90
2022-09-30T19:51:50.603Z,56.00
2022-09-30T19:54:21.926Z,56.20
2022-09-30T19:56:55.253Z,56.50
2022-09-30T19:59:24.901Z,56.80
2022-09-30T20:01:53.150Z,56.90
2022-09-30T20:04:22.447Z,56.80
2022-09-30T20:06:51.627Z,56.90
2022-09-30T20:09:19.832Z,56.70
2022-09-30T20:11:48.090Z,56.80
2022-09-30T20:14:33.692Z,57.00
2022-09-30T20:17:03.071Z,56.90
2022-09-30T20:19:31.064Z,57.00
2022-09-30T20:22:01.494Z,56.90
2022-09-30T20:24:32.382Z,56.70
2022-09-30T20:27:00.617Z,56.60
2022-09-30T20:29:28.899Z,56.90
2022-09-30T20:32:00.736Z,57.10
2022-09-30T20:34:30.446Z,56.70
2022-09-30T20:36:58.662Z,57.30
2022-09-30T20:39:26.807Z,57.50
2022-09-30T20:41:55.934Z,57.60
2022-09-30T20:44:26.176Z,57.60
2022-09-30T20:46:54.493Z,57.60
2022-09-30T20:49:23.959Z,57.70
2022-09-30T20:51:53.515Z,57.80
2022-09-30T20:54:22.557Z,57.70
2022-09-30T20:57:06.764Z,57.80
2022-09-30T20:59:35.716Z,57.80
2022-09-30T21:02:04.944Z,58.10
2022-09-30T21:04:35.859Z,57.70
2022-09-30T21:07:06.903Z,57.80
2022-09-30T21:09:35.920Z,58.10
2022-09-30T21:12:04.095Z,58.00
2022-09-30T21:14:35.293Z,58.00
2022-09-30T21:17:03.525Z,58.00
2022-09-30T21:19:32.124Z,57.90
2022-09-30T21:22:00.356Z,57.90
2022-09-30T21:24:30.030Z,57.90
2022-09-30T21:26:58.267Z,58.00
2022-09-30T21:29:30.701Z,58.10
2022-09-30T21:31:59.049Z,58.10
2022-09-30T21:34:29.335Z,58.20
2022-09-30T21:36:57.478Z,58.40
2022-09-30T21:39:25.748Z,58.40
2022-09-30T21:41:55.574Z,58.50
2022-09-30T21:44:25.662Z,58.60
2022-09-30T21:46:53.893Z,58.90
2022-09-30T21:49:24.041Z,59.30
2022-09-30T21:51:53.091Z,59.70
2022-09-30T21:54:23.368Z,60.00
2022-09-30T21:56:52.211Z,60.00
2022-09-30T21:59:21.765Z,60.20
2022-09-30T22:01:50.359Z,60.40
2022-09-30T22:04:19.580Z,60.50
2022-09-30T22:06:50.262Z,60.60
2022-09-30T22:09:18.492Z,60.60
2022-09-30T22:11:48.221Z,60.50
2022-09-30T22:14:17.029Z,60.60
2022-09-30T22:16:47.349Z,60.90
2022-09-30T22:19:15.807Z,60.80
2022-09-30T22:21:44.019Z,61.00
2022-09-30T22:24:12.312Z,60.90
2022-09-30T22:26:42.618Z,61.00
2022-09-30T22:29:12.519Z,61.00
2022-09-30T22:31:41.515Z,60.90
2022-09-30T22:34:32.414Z,61.00
2022-09-30T22:37:18.430Z,61.10
2022-09-30T22:39:46.591Z,61.00
2022-09-30T22:42:17.320Z,61.80
2022-09-30T22:44:46.335Z,61.20
2022-09-30T22:47:14.966Z,61.10
2022-09-30T22:49:44.903Z,61.10
2022-09-30T22:52:14.105Z,61.20
2022-09-30T22:54:42.301Z,61.00
2022-09-30T22:57:12.333Z,61.00
2022-09-30T22:59:41.817Z,60.90
2022-09-30T23:02:10.104Z,60.70
2022-09-30T23:04:38.286Z,60.50
2022-09-30T23:07:08.332Z,60.40
2022-09-30T23:09:38.700Z,60.20
2022-09-30T23:12:09.426Z,60.00
2022-09-30T23:14:38.587Z,59.90
2022-09-30T23:17:06.795Z,59.80
2022-09-30T23:19:34.980Z,59.80
2022-09-30T23:22:03.133Z,59.60
2022-09-30T23:24:32.846Z,59.60
2022-09-30T23:27:01.278Z,59.50
2022-09-30T23:29:31.867Z,59.40
2022-09-30T23:32:02.723Z,59.40
2022-09-30T23:34:31.091Z,59.40
2022-09-30T23:36:59.248Z,59.50
2022-09-30T23:39:27.478Z,59.50
2022-09-30T23:41:57.217Z,59.60
2022-09-30T23:44:28.648Z,59.40
2022-09-30T23:47:14.344Z,59.30
2022-09-30T23:49:43.196Z,59.20
2022-09-30T23:52:13.177Z,59.30
2022-09-30T23:54:41.591Z,59.20
2022-09-30T23:57:11.222Z,59.00
2022-09-30T23:59:39.685Z,59.00
